Pagina principale
METAR-TAF:

METAR-TAF

Aeroporti :

Calvi, Francia

Aeroporto di Calvi Sainte-Catherine

latitudine: 42-32N, longitudine: 008-48E, altezza: 64 m

Osservazione

Il bollettino è stato emesso 32 minuti fa, alle 15:30 UTC
Vento 3 kt da direzioni variabili
Temperature 14°C
Umidità 72%
Pressione 1012 hPa
Visibilità 10 km o più
nessuna nube inferiore a 1500 m e nessun cumulonembo

METAR: LFKC 191530Z AUTO VRB03KT CAVOK 14/09 Q1012 NOSIG

Ora: 17:02 (16:02 UTC)

Previsione

Il bollettino è stato emesso 2 ore e 2 minuti fa, alle 14:00 UTC
Previsione valida dal 19 alle 15 UTC al 20 alle 15 UTC
Vento 5 kt da sud
Visibilità 10 km o più
Poco nuvoloso ad un'altezza di 4000 ft
Nuvoloso ad un'altezza di 26000 ft
Evoluzione graduale
dal 20 alle 08 UTC al 20 alle 10 UTC
Vento 10 kt da nord

TAF: LFKC 191400Z 1915/2015 18005KT 9999 FEW040 BKN260 BECMG 2008/2010 36010KT TX18/2012Z TN07/2005Z

Osservazioni e previsioni meteorologiche di più di 4000 aeroporti (messaggi METAR e TAF).

Le stazioni disponibili sono rappresentate dai dischi gialli e rossi sulla carta.

Puntare il mouse per vedere il nome della stazione.

Clicca sopra per visualizzare le osservazioni e previsioni meteorologiche.

Per cambiare la mappa : fare clic sui pulsanti verdi con una croce nera per ingrandire, il pulsante verde con un trattino per diminuire, o sulla freccia verde per le mappe adiacenti.


METAR-TAF: